This is the latest recevied weather packets stored in our database for station/object JH0FOG-13. If no packets are shown the sender has not sent any weather packets the latest 10 day(s).
| Time | Temp. | Humidity | Pressure | Rain* | Wind** | Luminosity | Snow |
|---|---|---|---|---|---|---|---|
| 1777395603 | 14.44° C | 90% | 1011.7 hPa | 1.02 mm | - | - | - |
| 1777392003 | 15.56° C | 86% | 1011.9 hPa | 0 mm | - | - | - |
| 1777389603 | 15° C | 88% | 1011.9 hPa | 0 mm | - | - | - |
| 1777388403 | 14.44° C | 89% | 1011.7 hPa | 0 mm | - | - | - |
| 1777371602 | 16.67° C | 79% | 1011 hPa | 0 mm | - | - | - |
| 1777370402 | 16.67° C | 77% | 1010.1 hPa | 0 mm | - | - | - |
| 1777369203 | 16.67° C | 77% | 1010.3 hPa | 0 mm | - | - | - |
| 1777365603 | 17.78° C | 75% | 1009.8 hPa | 0 mm | - | - | - |
| 1777364403 | 18.33° C | 74% | 1009.8 hPa | 0 mm | - | - | - |
| 1777363203 | 18.33° C | 73% | 1009.7 hPa | 0 mm | - | - | - |
| 1777362003 | 18.89° C | 71% | 1009.4 hPa | 0 mm | - | - | - |
| 1777360802 | 20° C | 69% | 1009.1 hPa | 0 mm | - | - | - |
| 1777359602 | 20.56° C | 67% | 1009 hPa | 0 mm | - | - | - |
| 1777357202 | 21.67° C | 62% | 1008.9 hPa | 0 mm | - | - | - |
| 1777356002 | 21.67° C | 61% | 1008.7 hPa | 0 mm | - | - | - |
| 1777354802 | 21.67° C | 58% | 1008.5 hPa | 0 mm | - | - | - |
| 1777353602 | 22.22° C | 54% | 1008.5 hPa | 0 mm | - | - | - |
| 1777352403 | 22.22° C | 50% | 1009 hPa | 0 mm | - | - | - |
| 1777351203 | 22.22° C | 51% | 1009.1 hPa | 0 mm | - | - | - |
| 1777348803 | 22.22° C | 52% | 1009.3 hPa | 0 mm | - | - | - |
| 1777347603 | 21.67° C | 54% | 1009.3 hPa | 0 mm | - | - | - |
| 1777346403 | 21.67° C | 56% | 1009.4 hPa | 0 mm | - | - | - |
| 1777345203 | 21.11° C | 56% | 1009.6 hPa | 0 mm | - | - | - |
| 1777344003 | 21.11° C | 60% | 1009.8 hPa | 0 mm | - | - | - |
| 1777334403 | 18.89° C | 68% | 1011.2 hPa | 0 mm | - | - | - |
* Rain latest hour (hover to see other rain measurements)
** Current wind speed in m/s (hover to see current wind gust speed)